Time;durP1;ratioP1;P1;durP2;ratioP2;P2;SDS_P1;SDS_P2;PMS_P1;PMS_P2;Temp;Humidity;BMP_temperature;BMP_pressure;BME280_temperature;BME280_humidity;BME280_pressure;Samples;Min_cycle;Max_cycle;Signal;HPM_P1;HPM_P2
2023/07/24 00:00:08;;;;;;;11.85;6.40;;;16.70;99.90;;;;;;5057132;28;20045;-33
2023/07/24 00:02:34;;;;;;;10.43;6.20;;;16.70;99.90;;;;;;5056805;28;20067;-33
2023/07/24 00:04:59;;;;;;;12.15;6.18;;;16.70;99.90;;;;;;5057056;28;20471;-33
2023/07/24 00:07:25;;;;;;;7.35;4.43;;;16.70;99.90;;;;;;5038916;28;20047;-33
2023/07/24 00:09:51;;;;;;;11.27;6.03;;;16.70;99.90;;;;;;5055793;28;20044;-33
2023/07/24 00:12:16;;;;;;;10.43;5.60;;;16.70;99.90;;;;;;5057120;28;20048;-33
2023/07/24 00:14:42;;;;;;;11.77;7.15;;;16.80;99.90;;;;;;5055708;28;20055;-33
2023/07/24 00:17:08;;;;;;;8.75;4.43;;;16.80;99.90;;;;;;5038559;28;20045;-33
2023/07/24 00:19:33;;;;;;;10.93;4.90;;;16.90;99.90;;;;;;5055946;28;20080;-33
2023/07/24 00:21:59;;;;;;;12.95;6.05;;;16.90;99.90;;;;;;5056515;28;20048;-35
2023/07/24 00:24:25;;;;;;;11.07;5.38;;;16.90;99.90;;;;;;5055063;28;20501;-34
2023/07/24 00:26:50;;;;;;;9.27;5.40;;;17.00;99.90;;;;;;5056668;28;20375;-34
2023/07/24 00:29:19;;;;;;;7.82;5.20;;;16.90;99.90;;;;;;5056052;28;20056;-32
2023/07/24 00:31:44;;;;;;;11.02;5.20;;;16.90;99.90;;;;;;5055965;28;20045;-33
2023/07/24 00:34:10;;;;;;;10.35;5.45;;;16.90;99.90;;;;;;5056273;28;20102;-32
2023/07/24 00:36:37;;;;;;;9.23;5.03;;;16.80;99.90;;;;;;5056545;28;20368;-32
2023/07/24 00:39:03;;;;;;;11.40;5.45;;;16.90;99.90;;;;;;5056405;28;20045;-34
2023/07/24 00:41:29;;;;;;;12.23;6.10;;;16.90;99.90;;;;;;5055839;28;20053;-33
2023/07/24 00:43:55;;;;;;;12.82;5.63;;;16.90;99.90;;;;;;5055514;28;20133;-34
2023/07/24 00:46:23;;;;;;;10.07;5.43;;;16.80;99.90;;;;;;5055746;28;20049;-33
2023/07/24 00:48:49;;;;;;;10.63;5.40;;;16.80;99.90;;;;;;5022518;28;20135;-32
2023/07/24 00:51:15;;;;;;;9.90;5.03;;;16.80;99.90;;;;;;5054500;28;20479;-33
2023/07/24 00:53:46;;;;;;;12.30;4.88;;;16.90;99.90;;;;;;5055645;28;20129;-33
2023/07/24 00:56:14;;;;;;;14.40;5.55;;;16.80;99.90;;;;;;5055592;28;20094;-33
2023/07/24 00:58:42;;;;;;;13.57;5.68;;;16.90;99.90;;;;;;5055594;28;20053;-33
2023/07/24 01:01:10;;;;;;;14.52;6.43;;;16.80;99.90;;;;;;5056028;28;20048;-33
2023/07/24 01:03:36;;;;;;;14.45;5.97;;;16.80;99.90;;;;;;5054872;28;20128;-33
2023/07/24 01:06:04;;;;;;;12.10;5.80;;;16.90;99.90;;;;;;5055348;28;20053;-33
2023/07/24 01:08:32;;;;;;;12.35;5.85;;;16.90;99.90;;;;;;5055612;28;20044;-33
2023/07/24 01:11:22;;;;;;;11.82;6.32;;;16.80;99.90;;;;;;5038408;28;20051;-32
2023/07/24 01:14:10;;;;;;;12.30;6.10;;;16.80;99.90;;;;;;5040132;28;20053;-33
2023/07/24 01:16:39;;;;;;;17.95;7.90;;;16.70;99.90;;;;;;5038463;28;20132;-33
2023/07/24 01:19:30;;;;;;;13.73;5.97;;;16.60;99.90;;;;;;5055127;28;20041;-33
2023/07/24 01:22:21;;;;;;;17.05;6.88;;;16.50;99.90;;;;;;5055728;28;20045;-32
2023/07/24 01:25:16;;;;;;;14.05;6.90;;;16.40;99.90;;;;;;5055052;28;20041;-32
2023/07/24 01:27:46;;;;;;;14.25;6.20;;;16.40;99.90;;;;;;5048182;28;20053;-32
2023/07/24 01:30:14;;;;;;;17.00;7.50;;;16.30;99.90;;;;;;5054859;28;20057;-33
2023/07/24 01:32:40;;;;;;;17.23;8.00;;;16.20;99.90;;;;;;5053714;28;20045;-33
2023/07/24 01:35:06;;;;;;;12.80;6.72;;;16.10;99.90;;;;;;5054407;28;20060;-32
2023/07/24 01:37:33;;;;;;;13.85;7.95;;;16.10;99.90;;;;;;5054808;28;20099;-37
2023/07/24 01:39:59;;;;;;;9.75;6.65;;;16.00;99.90;;;;;;5054732;28;20060;-33
2023/07/24 01:42:26;;;;;;;12.82;8.95;;;16.00;99.90;;;;;;5054678;28;20041;-32
2023/07/24 01:44:55;;;;;;;12.35;7.10;;;16.00;99.90;;;;;;5054610;28;20063;-32
2023/07/24 01:47:21;;;;;;;14.90;8.30;;;16.10;99.90;;;;;;5054576;28;20052;-32
2023/07/24 01:49:47;;;;;;;13.98;8.23;;;16.10;99.90;;;;;;5054791;28;20525;-32
2023/07/24 01:52:13;;;;;;;13.00;8.20;;;16.10;99.90;;;;;;5054400;28;20041;-32
2023/07/24 01:54:39;;;;;;;15.35;8.82;;;16.20;99.90;;;;;;5054695;28;20049;-33
2023/07/24 01:57:05;;;;;;;11.20;7.70;;;16.20;99.90;;;;;;5054369;28;20040;-33
2023/07/24 01:59:30;;;;;;;17.60;9.20;;;16.20;99.90;;;;;;5054645;28;20060;-33
2023/07/24 02:01:56;;;;;;;15.15;8.82;;;16.20;99.90;;;;;;5054310;28;20466;-34
2023/07/24 02:04:22;;;;;;;17.10;10.07;;;16.10;99.90;;;;;;5053461;28;20053;-33
2023/07/24 02:06:51;;;;;;;16.75;9.00;;;16.00;99.90;;;;;;5054184;28;20037;-33
2023/07/24 02:09:18;;;;;;;17.60;9.60;;;15.90;99.90;;;;;;5054185;28;20056;-33
2023/07/24 02:11:44;;;;;;;16.90;8.98;;;15.90;99.90;;;;;;5054333;28;20489;-32
2023/07/24 02:14:14;;;;;;;18.98;9.60;;;15.80;99.90;;;;;;5054135;28;20044;-33
2023/07/24 02:16:39;;;;;;;17.92;10.18;;;15.70;99.90;;;;;;5054387;28;20049;-32
2023/07/24 02:19:05;;;;;;;20.25;10.35;;;15.60;99.90;;;;;;5054049;28;20056;-33
2023/07/24 02:21:32;;;;;;;17.38;10.10;;;15.60;99.90;;;;;;5053975;28;20171;-32
2023/07/24 02:23:58;;;;;;;20.52;10.95;;;15.50;99.90;;;;;;5053954;28;20391;-32
2023/07/24 02:26:23;;;;;;;19.85;11.43;;;15.50;99.90;;;;;;5053887;28;20041;-32
2023/07/24 02:28:49;;;;;;;20.48;12.63;;;15.60;99.90;;;;;;5052705;28;20545;-33
2023/07/24 02:31:15;;;;;;;21.10;12.35;;;15.60;99.90;;;;;;5053776;28;20045;-34
2023/07/24 02:33:40;;;;;;;20.58;12.82;;;15.60;99.90;;;;;;5053625;28;20078;-32
2023/07/24 02:36:06;;;;;;;19.77;12.25;;;15.70;99.90;;;;;;5053815;28;20092;-33
2023/07/24 02:38:32;;;;;;;20.15;13.30;;;15.80;99.90;;;;;;5052805;28;20053;-33
2023/07/24 02:40:57;;;;;;;21.52;14.75;;;15.80;99.90;;;;;;5053769;28;20395;-33
2023/07/24 02:43:23;;;;;;;19.80;13.75;;;15.80;99.90;;;;;;5052517;28;20055;-32
2023/07/24 02:45:51;;;;;;;22.15;14.55;;;15.80;99.90;;;;;;5054454;28;20037;-33
2023/07/24 02:48:17;;;;;;;24.13;15.07;;;15.80;99.90;;;;;;5035905;28;20045;-34
2023/07/24 02:50:47;;;;;;;20.50;14.13;;;15.90;99.90;;;;;;5053732;28;20148;-33
2023/07/24 02:53:13;;;;;;;23.38;15.27;;;15.90;99.90;;;;;;5054144;28;20049;-33
2023/07/24 02:55:43;;;;;;;19.70;14.95;;;15.90;99.90;;;;;;5053819;28;20048;-33
2023/07/24 02:58:09;;;;;;;18.52;14.20;;;16.00;99.90;;;;;;5053543;28;20056;-33
2023/07/24 03:00:37;;;;;;;22.60;15.00;;;16.00;99.90;;;;;;5053989;28;20037;-33
2023/07/24 03:03:03;;;;;;;23.40;15.20;;;16.10;99.90;;;;;;5053462;28;20049;-32
2023/07/24 03:05:29;;;;;;;28.88;15.35;;;16.10;99.90;;;;;;5052216;28;20491;-33
2023/07/24 03:07:57;;;;;;;24.92;14.73;;;16.10;99.90;;;;;;5053455;28;20053;-33
2023/07/24 03:10:25;;;;;;;22.67;13.80;;;16.10;99.90;;;;;;5053324;28;20091;-32
2023/07/24 03:12:51;;;;;;;23.45;14.23;;;16.20;99.90;;;;;;5035955;28;20409;-33
2023/07/24 03:15:18;;;;;;;22.23;14.00;;;16.20;99.90;;;;;;5053737;28;20052;-33
2023/07/24 03:17:44;;;;;;;23.10;14.77;;;16.20;99.90;;;;;;5057395;28;20060;-32
2023/07/24 03:20:14;;;;;;;19.73;13.18;;;16.20;99.90;;;;;;5056728;28;20041;-32
2023/07/24 03:22:44;;;;;;;21.60;13.05;;;16.30;99.90;;;;;;5057028;28;20140;-33
2023/07/24 03:25:10;;;;;;;19.55;11.98;;;16.30;99.90;;;;;;5057558;28;20479;-33
2023/07/24 03:27:35;;;;;;;18.70;11.63;;;16.30;99.90;;;;;;5057138;28;20056;-32
2023/07/24 03:30:01;;;;;;;21.05;11.73;;;16.30;99.90;;;;;;5057202;28;20115;-33
2023/07/24 03:32:27;;;;;;;15.13;10.38;;;16.30;99.90;;;;;;5055866;28;20475;-33
2023/07/24 03:34:52;;;;;;;18.23;10.80;;;16.40;99.90;;;;;;5057730;28;20049;-32
2023/07/24 03:37:18;;;;;;;14.98;10.70;;;16.40;99.90;;;;;;5057030;28;20128;-32
2023/07/24 03:39:44;;;;;;;18.05;10.98;;;16.40;99.90;;;;;;5056944;28;20052;-33
2023/07/24 03:42:12;;;;;;;16.25;10.70;;;16.40;99.90;;;;;;5039038;28;20047;-32
2023/07/24 03:44:40;;;;;;;19.83;11.48;;;16.40;99.90;;;;;;5056646;28;20488;-32
2023/07/24 03:47:06;;;;;;;17.77;11.93;;;16.40;99.90;;;;;;5056836;28;20056;-33
2023/07/24 03:49:32;;;;;;;17.45;10.93;;;16.40;99.90;;;;;;5055729;28;20049;-32
2023/07/24 03:51:57;;;;;;;19.08;11.02;;;16.40;99.90;;;;;;5056966;28;20389;-32
2023/07/24 03:54:23;;;;;;;16.02;9.90;;;16.40;99.90;;;;;;5055517;28;20438;-33
2023/07/24 03:56:49;;;;;;;13.55;10.10;;;16.40;99.90;;;;;;5056674;28;20048;-32
2023/07/24 03:59:14;;;;;;;16.25;10.65;;;16.50;99.90;;;;;;5057163;28;20049;-33
2023/07/24 04:01:40;;;;;;;19.05;10.50;;;16.40;99.90;;;;;;5056280;28;20041;-33
2023/07/24 04:04:06;;;;;;;15.38;10.18;;;16.50;99.90;;;;;;5056549;28;20045;-33
2023/07/24 04:06:31;;;;;;;16.02;9.85;;;16.50;99.90;;;;;;5056507;28;20048;-33
2023/07/24 04:08:57;;;;;;;15.43;10.63;;;16.50;99.90;;;;;;5056518;28;20091;-32
2023/07/24 04:11:23;;;;;;;14.77;9.80;;;16.50;99.90;;;;;;5056325;28;20041;-33
2023/07/24 04:13:53;;;;;;;16.70;9.50;;;16.50;99.90;;;;;;5056428;28;20041;-32
2023/07/24 04:16:19;;;;;;;15.20;9.07;;;16.50;99.90;;;;;;5057177;28;20124;-33
2023/07/24 04:18:44;;;;;;;12.40;8.38;;;16.50;99.90;;;;;;5056298;28;20099;-32
2023/07/24 04:21:10;;;;;;;13.95;8.57;;;16.50;99.90;;;;;;5055107;28;20048;-32
2023/07/24 04:23:36;;;;;;;18.95;9.30;;;16.50;99.90;;;;;;5056257;28;20123;-32
2023/07/24 04:26:01;;;;;;;16.52;9.43;;;16.50;99.90;;;;;;5039025;28;20053;-32
2023/07/24 04:28:27;;;;;;;16.77;9.18;;;16.50;99.90;;;;;;5055510;28;20411;-33
2023/07/24 04:30:53;;;;;;;16.33;9.40;;;16.50;99.90;;;;;;5056259;28;20045;-32
2023/07/24 04:33:18;;;;;;;18.35;8.90;;;16.50;99.90;;;;;;5054895;28;20087;-33
2023/07/24 04:35:48;;;;;;;14.35;9.02;;;16.50;99.90;;;;;;5056602;28;20060;-33
2023/07/24 04:38:14;;;;;;;15.75;8.60;;;16.50;99.90;;;;;;5054839;28;20044;-32
2023/07/24 04:40:43;;;;;;;14.18;8.35;;;16.60;99.90;;;;;;5055870;28;20043;-33
2023/07/24 04:43:08;;;;;;;13.18;7.70;;;16.60;99.90;;;;;;5038285;28;20514;-32
2023/07/24 04:45:34;;;;;;;15.07;9.18;;;16.60;99.90;;;;;;5055822;28;20088;-32
2023/07/24 04:48:00;;;;;;;13.07;9.07;;;16.60;99.90;;;;;;5055739;28;20048;-32
2023/07/24 04:50:25;;;;;;;17.30;8.88;;;16.60;99.90;;;;;;5055333;28;20122;-32
2023/07/24 04:52:51;;;;;;;20.25;9.85;;;16.60;99.90;;;;;;5054553;28;20052;-33
2023/07/24 04:55:17;;;;;;;14.95;9.73;;;16.60;99.90;;;;;;5055616;28;20114;-33
2023/07/24 04:57:42;;;;;;;11.07;8.50;;;16.70;99.90;;;;;;5054366;28;20122;-32
2023/07/24 05:00:09;;;;;;;12.25;9.70;;;16.70;99.90;;;;;;5055580;28;20088;-32
2023/07/24 05:02:34;;;;;;;14.60;10.13;;;16.70;99.90;;;;;;5055987;28;20076;-33
2023/07/24 05:05:00;;;;;;;14.55;10.48;;;16.70;99.90;;;;;;5056245;28;20083;-33
2023/07/24 05:07:26;;;;;;;13.88;9.88;;;16.70;99.90;;;;;;5055629;28;20072;-32
2023/07/24 05:09:51;;;;;;;14.85;10.25;;;16.80;99.90;;;;;;5055356;28;20498;-32
2023/07/24 05:12:17;;;;;;;13.80;9.90;;;16.80;99.90;;;;;;5037413;28;20441;-32
2023/07/24 05:14:43;;;;;;;16.02;10.27;;;16.80;99.90;;;;;;5055284;28;20127;-34
2023/07/24 05:17:08;;;;;;;12.57;9.73;;;16.80;99.90;;;;;;5055260;28;20110;-33
2023/07/24 05:19:34;;;;;;;14.07;10.15;;;16.90;99.90;;;;;;5054012;28;20048;-33
2023/07/24 05:22:00;;;;;;;13.70;10.02;;;16.90;99.90;;;;;;5054143;28;20051;-33
2023/07/24 05:24:25;;;;;;;16.45;10.45;;;16.90;99.90;;;;;;5053785;28;20077;-32
2023/07/24 05:26:51;;;;;;;17.83;11.07;;;16.90;99.90;;;;;;5055727;28;20084;-32
2023/07/24 05:29:17;;;;;;;13.77;10.77;;;16.90;99.90;;;;;;5054313;28;20512;-32
2023/07/24 05:31:43;;;;;;;14.18;10.52;;;16.90;99.90;;;;;;5020561;28;20098;-32
2023/07/24 05:34:08;;;;;;;14.10;11.50;;;16.90;99.90;;;;;;5020289;28;20538;-32
2023/07/24 05:36:34;;;;;;;14.38;10.43;;;17.00;99.90;;;;;;5054220;28;20056;-32
2023/07/24 05:39:00;;;;;;;13.18;10.43;;;16.90;99.90;;;;;;5053530;28;20067;-32
2023/07/24 05:41:25;;;;;;;15.45;11.80;;;16.90;99.90;;;;;;5054681;28;20048;-32
2023/07/24 05:43:51;;;;;;;14.93;11.63;;;16.90;99.90;;;;;;5054639;28;20049;-32
2023/07/24 05:46:17;;;;;;;13.85;11.38;;;16.90;99.90;;;;;;5053330;28;20052;-32
2023/07/24 05:48:42;;;;;;;16.50;12.02;;;16.90;99.90;;;;;;5054569;28;20120;-32
2023/07/24 05:51:08;;;;;;;15.95;12.18;;;16.90;99.90;;;;;;5053199;28;20415;-32
2023/07/24 05:53:34;;;;;;;15.52;11.32;;;16.90;99.90;;;;;;5054498;28;20110;-32
2023/07/24 05:56:01;;;;;;;16.45;12.20;;;16.80;99.90;;;;;;5053354;28;20493;-32
2023/07/24 05:58:27;;;;;;;17.20;12.80;;;16.90;99.90;;;;;;5053452;28;20442;-33
2023/07/24 06:00:54;;;;;;;16.17;11.70;;;16.90;99.90;;;;;;5036828;28;20045;-33
2023/07/24 06:03:20;;;;;;;16.75;11.77;;;16.80;99.90;;;;;;5052875;28;20490;-33
2023/07/24 06:05:46;;;;;;;16.92;11.95;;;16.80;99.90;;;;;;5036718;28;20045;-32
2023/07/24 06:08:11;;;;;;;15.13;11.85;;;16.80;99.90;;;;;;5053310;28;20471;-32
2023/07/24 06:10:37;;;;;;;17.95;12.25;;;16.80;99.90;;;;;;5052931;28;20037;-33
2023/07/24 06:13:03;;;;;;;20.42;12.02;;;16.90;99.90;;;;;;5052709;28;20045;-32
2023/07/24 06:15:29;;;;;;;18.20;12.45;;;16.90;99.90;;;;;;5052869;28;20056;-32
2023/07/24 06:17:54;;;;;;;18.00;11.93;;;17.00;99.90;;;;;;5053154;28;20182;-32
2023/07/24 06:20:20;;;;;;;18.30;11.65;;;17.10;99.90;;;;;;5054321;28;20048;-32
2023/07/24 06:22:46;;;;;;;15.32;11.32;;;17.10;99.90;;;;;;5053870;28;20533;-32
2023/07/24 06:25:12;;;;;;;21.00;12.40;;;17.20;99.90;;;;;;5053333;28;20079;-32
2023/07/24 06:27:37;;;;;;;13.65;11.77;;;17.30;99.90;;;;;;5053845;28;20044;-34
2023/07/24 06:30:04;;;;;;;16.80;11.43;;;17.30;99.90;;;;;;5053935;28;20123;-32
2023/07/24 06:32:30;;;;;;;13.15;11.80;;;17.40;99.90;;;;;;5053760;28;20052;-33
2023/07/24 06:34:55;;;;;;;18.67;11.95;;;17.40;99.90;;;;;;5053393;28;20057;-33
2023/07/24 06:37:24;;;;;;;16.58;11.13;;;17.50;99.90;;;;;;5053116;28;20048;-32
2023/07/24 06:39:49;;;;;;;19.75;11.68;;;17.60;99.90;;;;;;5036994;28;20084;-33
2023/07/24 06:42:15;;;;;;;13.63;10.57;;;17.70;99.90;;;;;;5053355;28;20079;-32
2023/07/24 06:44:41;;;;;;;18.10;10.77;;;17.70;99.90;;;;;;5052709;28;20048;-32
2023/07/24 06:47:06;;;;;;;15.32;10.55;;;17.80;99.90;;;;;;5053678;28;20041;-32
2023/07/24 06:49:32;;;;;;;19.30;11.23;;;17.80;99.90;;;;;;5052437;28;20394;-33
2023/07/24 06:51:58;;;;;;;16.00;10.25;;;17.80;99.90;;;;;;5036185;28;20048;-32
2023/07/24 06:54:23;;;;;;;18.52;11.07;;;18.00;99.90;;;;;;5052874;28;20134;-32
2023/07/24 06:56:49;;;;;;;15.13;9.80;;;18.00;99.90;;;;;;5052645;28;20052;-32
2023/07/24 06:59:15;;;;;;;16.27;10.25;;;18.00;99.90;;;;;;5052904;28;20466;-32
2023/07/24 07:01:40;;;;;;;15.98;9.82;;;18.10;99.90;;;;;;5036266;28;20049;-33
2023/07/24 07:04:06;;;;;;;15.23;9.32;;;18.10;99.90;;;;;;5054060;28;20067;-32
2023/07/24 07:06:32;;;;;;;14.82;9.43;;;18.20;99.90;;;;;;5053500;28;20132;-33
2023/07/24 07:08:58;;;;;;;16.35;9.07;;;18.20;99.90;;;;;;5052248;28;20067;-31
2023/07/24 07:11:23;;;;;;;15.70;9.10;;;18.20;99.90;;;;;;5053126;28;20053;-32
2023/07/24 07:13:49;;;;;;;14.40;9.10;;;18.20;99.90;;;;;;5052135;28;20048;-33
2023/07/24 07:16:16;;;;;;;14.23;9.38;;;18.30;99.90;;;;;;5052388;28;20049;-32
2023/07/24 07:18:42;;;;;;;16.17;9.80;;;18.40;99.90;;;;;;5053630;28;20124;-32
2023/07/24 07:21:08;;;;;;;17.60;9.85;;;18.50;99.90;;;;;;5053351;28;20459;-32
2023/07/24 07:23:33;;;;;;;13.40;9.68;;;18.60;99.90;;;;;;5054091;28;20045;-32
2023/07/24 07:25:59;;;;;;;15.30;9.75;;;18.70;99.90;;;;;;5053217;28;20072;-33
2023/07/24 07:28:25;;;;;;;16.85;9.27;;;18.70;99.90;;;;;;5053559;28;20387;-32
2023/07/24 07:30:50;;;;;;;12.88;8.68;;;18.70;99.90;;;;;;5053246;28;20394;-32
2023/07/24 07:33:16;;;;;;;17.90;8.80;;;18.70;99.90;;;;;;5053235;28;20550;-33
2023/07/24 07:35:43;;;;;;;14.60;9.20;;;18.80;99.90;;;;;;5034984;28;20135;-32
2023/07/24 07:38:08;;;;;;;15.30;9.05;;;18.90;99.90;;;;;;5051635;28;20060;-33
2023/07/24 07:40:38;;;;;;;19.80;9.70;;;19.00;99.90;;;;;;5053130;28;20049;-33
2023/07/24 07:43:03;;;;;;;13.85;8.57;;;19.00;99.90;;;;;;5052144;28;20056;-32
2023/07/24 07:45:29;;;;;;;17.25;8.50;;;19.20;99.90;;;;;;5053407;28;20041;-32
2023/07/24 07:47:55;;;;;;;15.32;8.43;;;19.30;99.90;;;;;;5051875;28;20049;-32
2023/07/24 07:50:20;;;;;;;12.13;7.40;;;19.40;99.90;;;;;;5053008;28;20088;-32
2023/07/24 07:52:50;;;;;;;16.63;8.20;;;19.40;99.90;;;;;;5053309;28;20120;-32
2023/07/24 07:55:16;;;;;;;14.65;8.30;;;19.50;99.90;;;;;;5051847;28;20511;-32
2023/07/24 07:57:42;;;;;;;12.77;7.40;;;19.70;99.90;;;;;;5053300;28;20041;-32
2023/07/24 08:00:08;;;;;;;15.43;8.60;;;19.80;99.90;;;;;;5035245;28;20540;-32
2023/07/24 08:02:34;;;;;;;14.00;8.30;;;19.80;67.90;;;;;;5053511;28;20407;-32
2023/07/24 08:05:00;;;;;;;13.32;7.82;;;19.90;51.50;;;;;;5056613;28;20048;-32
2023/07/24 08:07:25;;;;;;;14.20;8.40;;;19.90;35.10;;;;;;5056613;28;20048;-32
2023/07/24 08:09:51;;;;;;;16.27;7.07;;;20.00;62.90;;;;;;5022671;28;20053;-32
2023/07/24 08:12:17;;;;;;;13.50;7.43;;;20.00;1.00;;;;;;5056344;28;20048;-33
2023/07/24 08:14:43;;;;;;;16.98;8.43;;;20.00;1.00;;;;;;5055404;28;20080;-33
2023/07/24 08:17:08;;;;;;;10.90;6.70;;;20.00;1.00;;;;;;5056354;28;20048;-32
2023/07/24 08:19:34;;;;;;;14.32;6.50;;;20.10;1.00;;;;;;5055395;28;20044;-32
2023/07/24 08:22:04;;;;;;;16.92;7.15;;;20.00;99.90;;;;;;5055570;28;20060;-32
2023/07/24 08:24:33;;;;;;;18.38;7.70;;;20.00;99.90;;;;;;5057032;28;20052;-32
2023/07/24 08:27:01;;;;;;;16.80;8.65;;;20.10;1.00;;;;;;5056934;28;20080;-32
2023/07/24 08:29:29;;;;;;;15.25;6.93;;;20.40;1.00;;;;;;5056729;28;20111;-33
2023/07/24 08:31:55;;;;;;;17.58;7.78;;;20.60;99.90;;;;;;5055692;28;20099;-32
2023/07/24 08:34:21;;;;;;;14.23;7.43;;;20.80;99.90;;;;;;5038381;28;20057;-31
2023/07/24 08:36:46;;;;;;;12.40;7.00;;;20.60;99.90;;;;;;5054800;28;20095;-32
2023/07/24 08:39:12;;;;;;;13.32;7.57;;;20.50;99.90;;;;;;5055938;28;20095;-33
2023/07/24 08:41:38;;;;;;;14.20;8.13;;;20.30;99.90;;;;;;5054713;28;20043;-32
2023/07/24 08:44:08;;;;;;;13.82;6.38;;;20.20;99.90;;;;;;5054876;28;20088;-31
2023/07/24 08:46:41;;;;;;;15.35;7.43;;;20.20;99.90;;;;;;5055414;28;20053;-31
2023/07/24 08:49:14;;;;;;;14.93;6.93;;;20.30;99.90;;;;;;5057175;28;20056;-31
2023/07/24 08:51:41;;;;;;;15.13;7.57;;;20.30;99.90;;;;;;5038063;28;20047;-32
2023/07/24 08:54:11;;;;;;;15.35;7.88;;;20.60;99.90;;;;;;5054482;28;20053;-31
2023/07/24 08:56:40;;;;;;;15.43;7.55;;;20.80;99.90;;;;;;5054424;28;20091;-30
2023/07/24 08:59:06;;;;;;;15.73;8.05;;;20.80;27.70;;;;;;5054673;28;20060;-32
2023/07/24 09:01:32;;;;;;;13.68;7.55;;;21.00;99.90;;;;;;5054302;28;20045;-31
2023/07/24 09:03:57;;;;;;;11.65;7.93;;;20.90;99.90;;;;;;5055507;28;20044;-31
2023/07/24 09:06:29;;;;;;;11.48;6.82;;;20.80;99.90;;;;;;5055988;28;20584;-31
2023/07/24 09:08:55;;;;;;;14.30;7.38;;;20.70;35.00;;;;;;5054437;28;20502;-31
2023/07/24 09:11:22;;;;;;;13.93;6.72;;;20.70;99.90;;;;;;5037892;28;20037;-31
2023/07/24 09:13:49;;;;;;;17.25;8.48;;;20.90;96.00;;;;;;5054907;28;20055;-31
2023/07/24 09:16:23;;;;;;;13.65;7.53;;;;;;;;;;5055241;28;20512;-31
2023/07/24 09:18:51;;;;;;;13.15;7.10;;;21.50;1.00;;;;;;5055277;28;20106;-30
2023/07/24 09:21:27;;;;;;;11.32;6.60;;;21.90;99.90;;;;;;5054212;28;20075;-32
2023/07/24 09:23:56;;;;;;;11.25;5.72;;;22.30;1.00;;;;;;5054787;28;20085;-31
2023/07/24 09:26:24;;;;;;;11.13;5.90;;;22.70;90.30;;;;;;5055251;28;20045;-29
2023/07/24 09:28:57;;;;;;;10.00;5.50;;;23.10;13.60;;;;;;5054016;28;20045;-31
2023/07/24 09:31:36;;;;;;;10.55;5.90;;;23.10;1.00;;;;;;5054956;28;20094;-30
2023/07/24 09:34:02;;;;;;;10.75;6.03;;;22.50;1.00;;;;;;5053572;28;20053;-30
2023/07/24 09:36:38;;;;;;;17.52;7.15;;;22.70;1.00;;;;;;5055112;28;20122;-30
2023/07/24 09:39:10;;;;;;;8.77;4.90;;;23.20;1.00;;;;;;5037828;28;20052;-30
2023/07/24 09:41:36;;;;;;;11.98;6.32;;;23.20;96.80;;;;;;5054877;28;20053;-30
2023/07/24 09:44:04;;;;;;;8.93;5.47;;;23.00;1.00;;;;;;5055014;28;20041;-30
2023/07/24 09:46:32;;;;;;;9.35;5.28;;;23.00;57.40;;;;;;5053715;28;20044;-29
2023/07/24 09:48:58;;;;;;;9.95;5.00;;;23.10;1.00;;;;;;5054013;28;20045;-29
2023/07/24 09:51:24;;;;;;;12.48;5.45;;;24.20;1.00;;;;;;5053457;28;20049;-30
2023/07/24 09:53:55;;;;;;;11.15;5.60;;;24.50;1.00;;;;;;5053002;28;20037;-30
2023/07/24 09:56:25;;;;;;;11.90;5.00;;;24.60;1.00;;;;;;5053582;28;20471;-31
2023/07/24 09:58:55;;;;;;;9.38;5.07;;;25.00;99.90;;;;;;5054425;28;20113;-28
2023/07/24 10:01:24;;;;;;;9.68;4.90;;;25.20;99.90;;;;;;5054693;28;20441;-28
2023/07/24 10:03:51;;;;;;;9.25;6.00;;;24.90;1.00;;;;;;5053645;28;20052;-30
2023/07/24 10:06:20;;;;;;;9.48;5.82;;;24.90;99.90;;;;;;5054332;28;20053;-29
2023/07/24 10:08:49;;;;;;;9.23;4.20;;;24.10;91.40;;;;;;5053113;28;20407;-28
2023/07/24 10:11:15;;;;;;;7.13;3.00;;;23.20;99.90;;;;;;5053092;28;20135;-29
2023/07/24 10:13:41;;;;;;;6.75;3.35;;;21.70;99.90;;;;;;5053075;28;20139;-28
2023/07/24 10:16:10;;;;;;;8.30;3.33;;;20.30;1.00;;;;;;5053215;28;20080;-28
2023/07/24 10:18:45;;;;;;;9.80;4.57;;;19.60;99.90;;;;;;5054106;28;20106;-27
2023/07/24 10:21:15;;;;;;;6.90;4.65;;;19.40;18.10;;;;;;5054668;28;20056;-28
2023/07/24 10:23:46;;;;;;;13.00;5.47;;;19.20;1.00;;;;;;5054625;28;20041;-27
2023/07/24 10:26:12;;;;;;;4.25;2.58;;;19.10;99.90;;;;;;5053113;28;20132;-27
2023/07/24 10:28:41;;;;;;;7.63;2.28;;;19.10;1.00;;;;;;5053028;28;20459;-27
2023/07/24 10:31:29;;;;;;;3.45;1.90;;;19.60;1.00;;;;;;5053825;28;20399;-27
2023/07/24 10:34:04;;;;;;;3.13;2.08;;;19.50;99.90;;;;;;5052872;28;20049;-28
2023/07/24 10:36:34;;;;;;;5.85;3.20;;;20.00;1.00;;;;;;5054676;28;20072;-27
2023/07/24 10:39:15;;;;;;;4.13;2.83;;;20.30;99.90;;;;;;5053702;28;20368;-27
2023/07/24 10:41:41;;;;;;;5.65;3.45;;;20.00;1.00;;;;;;5054654;28;20044;-26
2023/07/24 10:44:07;;;;;;;5.95;3.75;;;20.00;52.10;;;;;;5053743;28;20119;-32
2023/07/24 10:46:42;;;;;;;8.32;6.15;;;18.90;99.90;;;;;;5052517;28;20049;-30
2023/07/24 10:49:09;;;;;;;10.07;6.13;;;18.60;99.90;;;;;;5053356;28;20044;-30
2023/07/24 10:51:37;;;;;;;10.45;8.55;;;18.30;99.90;;;;;;5052376;28;20044;-30
2023/07/24 10:54:04;;;;;;;10.20;7.40;;;18.30;99.90;;;;;;5053423;28;20544;-30
2023/07/24 10:56:30;;;;;;;12.70;7.65;;;18.30;99.90;;;;;;5053874;28;20055;-30
2023/07/24 10:58:55;;;;;;;12.55;7.72;;;18.30;99.90;;;;;;5053524;28;20394;-29
2023/07/24 11:01:23;;;;;;;13.02;9.23;;;18.30;99.90;;;;;;5053564;28;20124;-29
2023/07/24 11:03:49;;;;;;;12.73;9.13;;;18.20;99.90;;;;;;5053573;28;20052;-29
2023/07/24 11:06:19;;;;;;;9.75;7.57;;;18.30;99.90;;;;;;5054075;28;20132;-32
2023/07/24 11:08:55;;;;;;;10.95;7.97;;;18.30;99.90;;;;;;5054329;28;20106;-33
2023/07/24 11:11:22;;;;;;;8.52;6.70;;;18.70;99.90;;;;;;5053324;28;20037;-34
2023/07/24 11:13:48;;;;;;;11.65;8.00;;;19.10;99.90;;;;;;5035876;28;20056;-34
2023/07/24 11:16:13;;;;;;;11.82;7.43;;;19.80;99.90;;;;;;5053415;28;20041;-33
2023/07/24 11:18:47;;;;;;;9.45;6.95;;;20.60;99.90;;;;;;5052760;28;20423;-33
2023/07/24 11:21:13;;;;;;;11.38;7.78;;;20.90;1.00;;;;;;5053299;28;20135;-33
2023/07/24 11:23:50;;;;;;;10.40;5.80;;;21.10;6.90;;;;;;5052372;28;20112;-32
2023/07/24 11:26:18;;;;;;;10.75;7.82;;;20.90;99.90;;;;;;5054077;28;20045;-34
2023/07/24 11:28:44;;;;;;;10.18;7.85;;;20.80;16.40;;;;;;5053834;28;20517;-33
2023/07/24 11:31:09;;;;;;;21.48;7.88;;;20.70;1.00;;;;;;5052143;28;20128;-34
2023/07/24 11:33:40;;;;;;;7.95;6.30;;;20.60;1.00;;;;;;5053233;28;20056;-35
2023/07/24 11:36:06;;;;;;;8.82;6.85;;;20.90;18.50;;;;;;5052290;28;20095;-35
2023/07/24 11:38:32;;;;;;;11.52;8.13;;;21.10;1.00;;;;;;5056419;28;20529;-34
2023/07/24 11:40:58;;;;;;;10.48;6.63;;;21.30;99.90;;;;;;5055874;28;20084;-34
2023/07/24 11:43:27;;;;;;;7.22;5.82;;;21.20;99.90;;;;;;5056719;28;20048;-34
2023/07/24 11:45:54;;;;;;;12.95;5.47;;;20.90;99.90;;;;;;5055826;28;20080;-35
2023/07/24 11:48:24;;;;;;;11.80;6.30;;;20.80;1.00;;;;;;5057190;28;20078;-33
2023/07/24 11:50:52;;;;;;;5.25;4.38;;;20.60;1.00;;;;;;5056830;28;20102;-34
2023/07/24 11:53:25;;;;;;;8.73;5.85;;;20.10;99.90;;;;;;5039851;28;20053;-33
2023/07/24 11:55:53;;;;;;;7.65;5.72;;;19.80;1.00;;;;;;5056821;28;20057;-34
2023/07/24 11:58:20;;;;;;;8.70;5.50;;;19.70;1.00;;;;;;5056744;28;20081;-32
2023/07/24 12:00:51;;;;;;;8.40;4.80;;;19.60;12.50;;;;;;5056708;28;20132;-33
2023/07/24 12:03:35;;;;;;;7.95;5.80;;;19.40;1.00;;;;;;5056615;28;20049;-32
2023/07/24 12:06:02;;;;;;;8.02;5.50;;;19.20;1.00;;;;;;5057191;28;20045;-32
2023/07/24 12:08:33;;;;;;;8.27;5.68;;;19.00;9.90;;;;;;5055609;28;20049;-33
2023/07/24 12:10:59;;;;;;;7.60;5.10;;;19.00;1.00;;;;;;5056407;28;20048;-32
2023/07/24 12:13:25;;;;;;;6.15;4.53;;;19.10;72.20;;;;;;5057301;28;20054;-32
2023/07/24 12:15:51;;;;;;;7.97;5.65;;;19.30;59.20;;;;;;5055545;28;20045;-32
2023/07/24 12:18:17;;;;;;;9.18;5.75;;;19.30;68.60;;;;;;5056437;28;20372;-34
2023/07/24 12:20:43;;;;;;;7.07;4.85;;;19.40;32.00;;;;;;5055308;28;20041;-31
2023/07/24 12:23:08;;;;;;;6.55;4.45;;;19.40;1.00;;;;;;5056246;28;20084;-32
2023/07/24 12:25:34;;;;;;;7.53;5.40;;;19.20;1.00;;;;;;5056222;28;20049;-32
2023/07/24 12:28:00;;;;;;;5.30;4.32;;;19.30;1.00;;;;;;5056116;28;20053;-32
2023/07/24 12:30:26;;;;;;;6.00;4.80;;;19.20;1.00;;;;;;5055012;28;20048;-30
2023/07/24 12:32:51;;;;;;;6.22;4.40;;;19.10;1.00;;;;;;5056032;28;20406;-31
2023/07/24 12:35:17;;;;;;;6.15;4.82;;;19.00;1.00;;;;;;5056180;28;20098;-30
2023/07/24 12:37:46;;;;;;;6.45;4.63;;;18.90;1.00;;;;;;5055998;28;20049;-30